This is the latest recevied weather packets stored in our database for station/object EA4URC-13. If no packets are shown the sender has not sent any weather packets the latest 10 day(s).
| Time | Temp. | Humidity | Pressure | Rain* | Wind** | Luminosity | Snow |
|---|---|---|---|---|---|---|---|
| 1777574573 | 20° C | 32% | 1005.4 hPa | - | - | - | - |
| 1777573680 | 21.67° C | 31% | 1004.6 hPa | - | - | - | - |
| 1777572773 | 22.22° C | 31% | 1004.2 hPa | - | - | - | - |
| 1777571868 | 20.56° C | 33% | 1004.8 hPa | - | - | - | - |
| 1777570234 | 22.22° C | 32% | 1004.2 hPa | - | - | - | - |
| 1777569309 | 22.22° C | 31% | 1004.4 hPa | - | - | - | - |
| 1777568409 | 22.22° C | 30% | 1004.3 hPa | - | - | - | - |
| 1777567509 | 22.22° C | 30% | 1004.3 hPa | - | - | - | - |
| 1777566609 | 22.22° C | 30% | 1004.3 hPa | - | - | - | - |
| 1777565709 | 21.67° C | 32% | 1004.6 hPa | - | - | - | - |
| 1777564787 | 21.11° C | 32% | 1004.7 hPa | - | - | - | - |
| 1777563887 | 20° C | 34% | 1005.4 hPa | - | - | - | - |
| 1777562087 | 22.22° C | 33% | 1004.5 hPa | - | - | - | - |
| 1777561184 | 22.22° C | 32% | 1004.4 hPa | - | - | - | - |
| 1777560284 | 22.22° C | 32% | 1004.5 hPa | - | - | - | - |
| 1777559385 | 21.67° C | 33% | 1004.7 hPa | - | - | - | - |
| 1777558485 | 21.11° C | 35% | 1005.1 hPa | - | - | - | - |
| 1777557585 | 22.22° C | 33% | 1004.7 hPa | - | - | - | - |
| 1777556685 | 22.78° C | 33% | 1004.6 hPa | - | - | - | - |
| 1777555784 | 22.78° C | 33% | 1004.6 hPa | - | - | - | - |
| 1777554889 | 22.22° C | 34% | 1004.8 hPa | - | - | - | - |
| 1777551271 | 21.11° C | 34% | 1005.5 hPa | - | - | - | - |
| 1777550371 | 20.56° C | 36% | 1005.7 hPa | - | - | - | - |
| 1777549793 | 20° C | 36% | 1006.1 hPa | - | - | - | - |
| 1777549466 | 20° C | 36% | 1006.1 hPa | - | - | - | - |
* Rain since midnight (hover to see other rain measurements)
** Current wind speed in m/s (hover to see current wind gust speed)